sensor_id;sensor_type;location;lat;lon;timestamp;temperature;humidity
22908;DHT22;11620;50.050;8.690;2023-07-16T00:01:18;17.80;99.90
22908;DHT22;11620;50.050;8.690;2023-07-16T00:04:04;17.90;99.90
22908;DHT22;11620;50.050;8.690;2023-07-16T00:06:51;17.80;99.90
22908;DHT22;11620;50.050;8.690;2023-07-16T00:09:37;17.90;99.90
22908;DHT22;11620;50.050;8.690;2023-07-16T00:12:23;17.80;99.90
22908;DHT22;11620;50.050;8.690;2023-07-16T00:15:10;17.70;99.90
22908;DHT22;11620;50.050;8.690;2023-07-16T00:17:56;17.70;99.90
22908;DHT22;11620;50.050;8.690;2023-07-16T00:20:42;17.80;99.90
22908;DHT22;11620;50.050;8.690;2023-07-16T00:23:29;17.70;99.90
22908;DHT22;11620;50.050;8.690;2023-07-16T00:26:15;17.60;99.90
22908;DHT22;11620;50.050;8.690;2023-07-16T00:29:01;17.70;99.90
22908;DHT22;11620;50.050;8.690;2023-07-16T00:31:48;17.70;99.90
22908;DHT22;11620;50.050;8.690;2023-07-16T00:34:34;17.60;99.90
22908;DHT22;11620;50.050;8.690;2023-07-16T00:37:21;17.60;99.90
22908;DHT22;11620;50.050;8.690;2023-07-16T00:40:07;17.50;99.90
22908;DHT22;11620;50.050;8.690;2023-07-16T00:42:54;17.50;99.90
22908;DHT22;11620;50.050;8.690;2023-07-16T00:45:41;17.60;99.90
22908;DHT22;11620;50.050;8.690;2023-07-16T00:48:28;17.50;99.90
22908;DHT22;11620;50.050;8.690;2023-07-16T00:51:15;17.50;99.90
22908;DHT22;11620;50.050;8.690;2023-07-16T00:54:02;17.60;99.90
22908;DHT22;11620;50.050;8.690;2023-07-16T00:56:48;17.40;99.90
22908;DHT22;11620;50.050;8.690;2023-07-16T00:59:35;17.30;99.90
22908;DHT22;11620;50.050;8.690;2023-07-16T01:02:21;17.40;99.90
22908;DHT22;11620;50.050;8.690;2023-07-16T01:05:08;17.40;99.90
22908;DHT22;11620;50.050;8.690;2023-07-16T01:07:58;17.30;99.90
22908;DHT22;11620;50.050;8.690;2023-07-16T01:10:46;17.30;99.90
22908;DHT22;11620;50.050;8.690;2023-07-16T01:13:32;17.40;99.90
22908;DHT22;11620;50.050;8.690;2023-07-16T01:16:21;17.40;99.90
22908;DHT22;11620;50.050;8.690;2023-07-16T01:19:07;17.40;99.90
22908;DHT22;11620;50.050;8.690;2023-07-16T01:30:50;17.50;99.90
22908;DHT22;11620;50.050;8.690;2023-07-16T01:33:41;17.40;99.90
22908;DHT22;11620;50.050;8.690;2023-07-16T01:36:29;17.40;99.90
22908;DHT22;11620;50.050;8.690;2023-07-16T01:39:16;17.30;99.90
22908;DHT22;11620;50.050;8.690;2023-07-16T01:42:03;17.10;99.90
22908;DHT22;11620;50.050;8.690;2023-07-16T01:44:49;17.10;99.90
22908;DHT22;11620;50.050;8.690;2023-07-16T01:50:53;17.30;99.90
22908;DHT22;11620;50.050;8.690;2023-07-16T01:53:40;17.10;99.90
22908;DHT22;11620;50.050;8.690;2023-07-16T01:56:26;16.90;99.90
22908;DHT22;11620;50.050;8.690;2023-07-16T01:59:13;17.00;99.90
22908;DHT22;11620;50.050;8.690;2023-07-16T02:01:59;16.80;99.90
22908;DHT22;11620;50.050;8.690;2023-07-16T02:04:45;16.90;99.90
22908;DHT22;11620;50.050;8.690;2023-07-16T02:07:32;16.90;99.90
22908;DHT22;11620;50.050;8.690;2023-07-16T02:10:18;16.70;99.90
22908;DHT22;11620;50.050;8.690;2023-07-16T02:13:04;16.80;99.90
22908;DHT22;11620;50.050;8.690;2023-07-16T02:15:51;16.70;99.90
22908;DHT22;11620;50.050;8.690;2023-07-16T02:18:37;16.70;99.90
22908;DHT22;11620;50.050;8.690;2023-07-16T02:21:23;16.60;99.90
22908;DHT22;11620;50.050;8.690;2023-07-16T02:24:10;16.60;99.90
22908;DHT22;11620;50.050;8.690;2023-07-16T02:26:56;16.50;99.90
22908;DHT22;11620;50.050;8.690;2023-07-16T02:29:42;16.40;99.90
22908;DHT22;11620;50.050;8.690;2023-07-16T02:32:28;16.50;99.90
22908;DHT22;11620;50.050;8.690;2023-07-16T02:35:15;16.50;99.90
22908;DHT22;11620;50.050;8.690;2023-07-16T02:38:01;16.40;99.90
22908;DHT22;11620;50.050;8.690;2023-07-16T02:40:48;16.40;99.90
22908;DHT22;11620;50.050;8.690;2023-07-16T02:43:34;16.40;99.90
22908;DHT22;11620;50.050;8.690;2023-07-16T02:46:21;16.50;99.90
22908;DHT22;11620;50.050;8.690;2023-07-16T02:49:07;16.40;99.90
22908;DHT22;11620;50.050;8.690;2023-07-16T02:51:53;16.40;99.90
22908;DHT22;11620;50.050;8.690;2023-07-16T02:54:39;16.50;99.90
22908;DHT22;11620;50.050;8.690;2023-07-16T02:57:26;16.30;99.90
22908;DHT22;11620;50.050;8.690;2023-07-16T03:00:12;16.20;99.90
22908;DHT22;11620;50.050;8.690;2023-07-16T03:02:59;16.20;99.90
22908;DHT22;11620;50.050;8.690;2023-07-16T03:05:46;16.30;99.90
22908;DHT22;11620;50.050;8.690;2023-07-16T03:08:32;16.20;99.90
22908;DHT22;11620;50.050;8.690;2023-07-16T03:11:19;16.10;99.90
22908;DHT22;11620;50.050;8.690;2023-07-16T03:14:05;16.20;99.90
22908;DHT22;11620;50.050;8.690;2023-07-16T03:16:52;16.10;99.90
22908;DHT22;11620;50.050;8.690;2023-07-16T03:19:38;16.10;99.90
22908;DHT22;11620;50.050;8.690;2023-07-16T03:22:24;16.00;99.90
22908;DHT22;11620;50.050;8.690;2023-07-16T03:25:11;16.00;99.90
22908;DHT22;11620;50.050;8.690;2023-07-16T03:27:57;16.00;99.90
22908;DHT22;11620;50.050;8.690;2023-07-16T03:30:50;15.90;99.90
22908;DHT22;11620;50.050;8.690;2023-07-16T03:33:37;15.90;99.90
22908;DHT22;11620;50.050;8.690;2023-07-16T03:36:23;15.90;99.90
22908;DHT22;11620;50.050;8.690;2023-07-16T03:39:09;15.80;99.90
22908;DHT22;11620;50.050;8.690;2023-07-16T03:41:56;15.80;99.90
22908;DHT22;11620;50.050;8.690;2023-07-16T03:44:42;15.70;99.90
22908;DHT22;11620;50.050;8.690;2023-07-16T03:47:28;15.80;99.90
22908;DHT22;11620;50.050;8.690;2023-07-16T03:50:15;15.70;99.90
22908;DHT22;11620;50.050;8.690;2023-07-16T03:53:02;15.70;99.90
22908;DHT22;11620;50.050;8.690;2023-07-16T03:55:49;15.60;99.90
22908;DHT22;11620;50.050;8.690;2023-07-16T03:58:36;15.70;99.90
22908;DHT22;11620;50.050;8.690;2023-07-16T04:01:22;15.80;99.90
22908;DHT22;11620;50.050;8.690;2023-07-16T04:04:09;15.80;99.90
22908;DHT22;11620;50.050;8.690;2023-07-16T04:06:55;15.80;99.90
22908;DHT22;11620;50.050;8.690;2023-07-16T04:09:42;15.80;99.90
22908;DHT22;11620;50.050;8.690;2023-07-16T04:12:28;15.60;99.90
22908;DHT22;11620;50.050;8.690;2023-07-16T04:15:15;15.60;99.90
22908;DHT22;11620;50.050;8.690;2023-07-16T04:18:01;15.60;99.90
22908;DHT22;11620;50.050;8.690;2023-07-16T04:20:48;15.60;99.90
22908;DHT22;11620;50.050;8.690;2023-07-16T04:23:35;15.60;99.90
22908;DHT22;11620;50.050;8.690;2023-07-16T04:26:21;15.70;99.90
22908;DHT22;11620;50.050;8.690;2023-07-16T04:29:08;15.60;99.90
22908;DHT22;11620;50.050;8.690;2023-07-16T04:31:54;15.70;99.90
22908;DHT22;11620;50.050;8.690;2023-07-16T04:34:40;15.70;99.90
22908;DHT22;11620;50.050;8.690;2023-07-16T04:37:27;15.70;99.90
22908;DHT22;11620;50.050;8.690;2023-07-16T04:40:13;15.60;99.90
22908;DHT22;11620;50.050;8.690;2023-07-16T04:42:59;15.60;99.90
22908;DHT22;11620;50.050;8.690;2023-07-16T04:45:46;15.60;99.90
22908;DHT22;11620;50.050;8.690;2023-07-16T04:48:32;15.60;99.90
22908;DHT22;11620;50.050;8.690;2023-07-16T04:51:19;15.70;99.90
22908;DHT22;11620;50.050;8.690;2023-07-16T04:54:05;15.60;99.90
22908;DHT22;11620;50.050;8.690;2023-07-16T04:56:51;15.60;99.90
22908;DHT22;11620;50.050;8.690;2023-07-16T04:59:38;15.60;99.90
22908;DHT22;11620;50.050;8.690;2023-07-16T05:02:24;15.60;99.90
22908;DHT22;11620;50.050;8.690;2023-07-16T05:05:10;15.70;99.90
22908;DHT22;11620;50.050;8.690;2023-07-16T05:07:57;15.70;99.90
22908;DHT22;11620;50.050;8.690;2023-07-16T05:10:43;15.80;99.90
22908;DHT22;11620;50.050;8.690;2023-07-16T05:13:29;15.80;99.90
22908;DHT22;11620;50.050;8.690;2023-07-16T05:16:16;15.90;99.90
22908;DHT22;11620;50.050;8.690;2023-07-16T05:19:02;15.70;99.90
22908;DHT22;11620;50.050;8.690;2023-07-16T05:21:48;15.70;99.90
22908;DHT22;11620;50.050;8.690;2023-07-16T05:24:34;15.60;99.90
22908;DHT22;11620;50.050;8.690;2023-07-16T05:27:21;15.70;99.90
22908;DHT22;11620;50.050;8.690;2023-07-16T05:30:08;15.70;99.90
22908;DHT22;11620;50.050;8.690;2023-07-16T05:32:54;15.70;99.90
22908;DHT22;11620;50.050;8.690;2023-07-16T05:35:40;15.90;99.90
22908;DHT22;11620;50.050;8.690;2023-07-16T05:38:27;15.80;99.90
22908;DHT22;11620;50.050;8.690;2023-07-16T05:41:13;15.90;99.90
22908;DHT22;11620;50.050;8.690;2023-07-16T05:44:00;15.80;99.90
22908;DHT22;11620;50.050;8.690;2023-07-16T05:46:46;15.80;99.90
22908;DHT22;11620;50.050;8.690;2023-07-16T05:49:32;15.90;99.90
22908;DHT22;11620;50.050;8.690;2023-07-16T05:52:18;16.00;99.90
22908;DHT22;11620;50.050;8.690;2023-07-16T05:55:05;16.00;99.90
22908;DHT22;11620;50.050;8.690;2023-07-16T05:57:51;15.90;99.90
22908;DHT22;11620;50.050;8.690;2023-07-16T06:00:38;15.90;99.90
22908;DHT22;11620;50.050;8.690;2023-07-16T06:03:25;16.00;99.90
22908;DHT22;11620;50.050;8.690;2023-07-16T06:06:11;16.10;99.90
22908;DHT22;11620;50.050;8.690;2023-07-16T06:08:58;16.10;99.90
22908;DHT22;11620;50.050;8.690;2023-07-16T06:11:46;16.10;99.90
22908;DHT22;11620;50.050;8.690;2023-07-16T06:14:33;16.20;99.90
22908;DHT22;11620;50.050;8.690;2023-07-16T06:17:20;16.30;99.90
22908;DHT22;11620;50.050;8.690;2023-07-16T06:20:07;16.40;99.90
22908;DHT22;11620;50.050;8.690;2023-07-16T06:22:53;16.50;99.90
22908;DHT22;11620;50.050;8.690;2023-07-16T06:25:39;16.70;99.90
22908;DHT22;11620;50.050;8.690;2023-07-16T06:28:35;16.80;99.90
22908;DHT22;11620;50.050;8.690;2023-07-16T06:31:22;16.80;99.90
22908;DHT22;11620;50.050;8.690;2023-07-16T06:34:08;17.10;99.90
22908;DHT22;11620;50.050;8.690;2023-07-16T06:36:54;17.30;99.90
22908;DHT22;11620;50.050;8.690;2023-07-16T06:39:41;17.70;99.90
22908;DHT22;11620;50.050;8.690;2023-07-16T06:42:27;17.60;99.90
22908;DHT22;11620;50.050;8.690;2023-07-16T06:45:13;17.70;99.90
22908;DHT22;11620;50.050;8.690;2023-07-16T06:48:00;17.80;99.90
22908;DHT22;11620;50.050;8.690;2023-07-16T06:50:46;17.90;99.90
22908;DHT22;11620;50.050;8.690;2023-07-16T06:53:33;18.00;99.90
22908;DHT22;11620;50.050;8.690;2023-07-16T06:56:19;17.90;99.90
22908;DHT22;11620;50.050;8.690;2023-07-16T06:59:05;18.00;99.90
22908;DHT22;11620;50.050;8.690;2023-07-16T07:01:52;18.00;99.90
22908;DHT22;11620;50.050;8.690;2023-07-16T07:04:38;18.20;99.90
22908;DHT22;11620;50.050;8.690;2023-07-16T07:07:24;18.40;99.90
22908;DHT22;11620;50.050;8.690;2023-07-16T07:10:12;18.60;99.90
22908;DHT22;11620;50.050;8.690;2023-07-16T07:12:59;18.60;99.90
22908;DHT22;11620;50.050;8.690;2023-07-16T07:15:45;18.80;99.90
22908;DHT22;11620;50.050;8.690;2023-07-16T07:18:31;18.80;99.90
22908;DHT22;11620;50.050;8.690;2023-07-16T07:21:18;18.80;99.90
22908;DHT22;11620;50.050;8.690;2023-07-16T07:24:04;18.90;99.90
22908;DHT22;11620;50.050;8.690;2023-07-16T07:26:50;19.00;99.90
22908;DHT22;11620;50.050;8.690;2023-07-16T07:29:37;18.90;99.90
22908;DHT22;11620;50.050;8.690;2023-07-16T07:32:23;19.30;99.90
22908;DHT22;11620;50.050;8.690;2023-07-16T07:35:09;19.30;99.90
22908;DHT22;11620;50.050;8.690;2023-07-16T07:37:56;19.30;99.90
22908;DHT22;11620;50.050;8.690;2023-07-16T07:40:43;19.00;99.90
22908;DHT22;11620;50.050;8.690;2023-07-16T07:43:30;19.10;99.90
22908;DHT22;11620;50.050;8.690;2023-07-16T07:45:56;19.20;99.90
22908;DHT22;11620;50.050;8.690;2023-07-16T07:48:40;19.40;99.90
22908;DHT22;11620;50.050;8.690;2023-07-16T07:51:27;19.80;99.90
22908;DHT22;11620;50.050;8.690;2023-07-16T07:54:13;19.50;99.90
22908;DHT22;11620;50.050;8.690;2023-07-16T07:57:04;19.70;99.90
22908;DHT22;11620;50.050;8.690;2023-07-16T07:59:50;20.20;99.90
22908;DHT22;11620;50.050;8.690;2023-07-16T08:02:42;20.20;99.90
22908;DHT22;11620;50.050;8.690;2023-07-16T08:05:29;20.20;99.90
22908;DHT22;11620;50.050;8.690;2023-07-16T08:08:16;20.20;99.90
22908;DHT22;11620;50.050;8.690;2023-07-16T08:11:03;20.30;99.90
22908;DHT22;11620;50.050;8.690;2023-07-16T08:13:49;20.30;99.90
22908;DHT22;11620;50.050;8.690;2023-07-16T08:16:35;20.30;99.90
22908;DHT22;11620;50.050;8.690;2023-07-16T08:19:22;20.10;99.90
22908;DHT22;11620;50.050;8.690;2023-07-16T08:22:08;20.50;99.90
22908;DHT22;11620;50.050;8.690;2023-07-16T08:24:54;20.80;99.90
22908;DHT22;11620;50.050;8.690;2023-07-16T08:27:41;20.80;99.90
22908;DHT22;11620;50.050;8.690;2023-07-16T08:30:27;20.40;99.90
22908;DHT22;11620;50.050;8.690;2023-07-16T08:33:14;20.30;99.90
22908;DHT22;11620;50.050;8.690;2023-07-16T08:36:00;20.90;99.90
22908;DHT22;11620;50.050;8.690;2023-07-16T08:38:47;20.60;99.90
22908;DHT22;11620;50.050;8.690;2023-07-16T08:41:33;20.90;99.90
22908;DHT22;11620;50.050;8.690;2023-07-16T08:44:20;20.90;99.90
22908;DHT22;11620;50.050;8.690;2023-07-16T08:47:07;20.80;99.90
22908;DHT22;11620;50.050;8.690;2023-07-16T08:49:56;20.80;99.90
22908;DHT22;11620;50.050;8.690;2023-07-16T08:52:43;20.80;99.90
22908;DHT22;11620;50.050;8.690;2023-07-16T08:55:30;20.60;99.90
22908;DHT22;11620;50.050;8.690;2023-07-16T08:58:17;21.10;99.90
22908;DHT22;11620;50.050;8.690;2023-07-16T09:01:05;21.20;99.90
22908;DHT22;11620;50.050;8.690;2023-07-16T09:03:52;21.30;99.90
22908;DHT22;11620;50.050;8.690;2023-07-16T09:06:38;21.30;99.90
22908;DHT22;11620;50.050;8.690;2023-07-16T09:09:25;21.20;99.90
22908;DHT22;11620;50.050;8.690;2023-07-16T09:12:12;21.80;99.90
22908;DHT22;11620;50.050;8.690;2023-07-16T09:14:58;21.90;99.90
22908;DHT22;11620;50.050;8.690;2023-07-16T09:17:48;22.00;99.90
22908;DHT22;11620;50.050;8.690;2023-07-16T09:20:35;22.00;99.90
22908;DHT22;11620;50.050;8.690;2023-07-16T09:23:24;21.90;99.90
22908;DHT22;11620;50.050;8.690;2023-07-16T09:26:10;21.30;99.90
22908;DHT22;11620;50.050;8.690;2023-07-16T09:28:56;21.20;99.90
22908;DHT22;11620;50.050;8.690;2023-07-16T09:31:56;21.80;99.90
22908;DHT22;11620;50.050;8.690;2023-07-16T09:34:43;21.40;99.90
22908;DHT22;11620;50.050;8.690;2023-07-16T09:37:29;21.60;99.90
22908;DHT22;11620;50.050;8.690;2023-07-16T09:40:16;21.20;99.90
22908;DHT22;11620;50.050;8.690;2023-07-16T09:43:03;21.80;99.90
22908;DHT22;11620;50.050;8.690;2023-07-16T09:45:50;21.80;99.90
22908;DHT22;11620;50.050;8.690;2023-07-16T09:48:36;21.60;99.90
22908;DHT22;11620;50.050;8.690;2023-07-16T09:51:24;21.30;99.90
22908;DHT22;11620;50.050;8.690;2023-07-16T09:54:14;21.40;99.90
22908;DHT22;11620;50.050;8.690;2023-07-16T09:57:02;21.80;99.90
22908;DHT22;11620;50.050;8.690;2023-07-16T09:59:50;22.10;99.90
22908;DHT22;11620;50.050;8.690;2023-07-16T10:02:38;22.60;99.90
22908;DHT22;11620;50.050;8.690;2023-07-16T10:05:27;22.60;99.90
22908;DHT22;11620;50.050;8.690;2023-07-16T10:08:19;23.00;99.90
22908;DHT22;11620;50.050;8.690;2023-07-16T10:11:16;23.00;99.90
22908;DHT22;11620;50.050;8.690;2023-07-16T10:14:02;23.40;99.90
22908;DHT22;11620;50.050;8.690;2023-07-16T10:16:48;23.50;99.90
22908;DHT22;11620;50.050;8.690;2023-07-16T10:19:46;23.10;99.90
22908;DHT22;11620;50.050;8.690;2023-07-16T10:22:34;23.40;99.90
22908;DHT22;11620;50.050;8.690;2023-07-16T10:25:22;23.90;99.90
22908;DHT22;11620;50.050;8.690;2023-07-16T10:28:09;23.80;99.90
22908;DHT22;11620;50.050;8.690;2023-07-16T10:30:55;23.90;99.90
22908;DHT22;11620;50.050;8.690;2023-07-16T10:33:41;23.60;99.90
22908;DHT22;11620;50.050;8.690;2023-07-16T10:36:28;23.50;99.90
22908;DHT22;11620;50.050;8.690;2023-07-16T10:39:15;23.50;99.90
22908;DHT22;11620;50.050;8.690;2023-07-16T10:42:02;24.00;99.90
22908;DHT22;11620;50.050;8.690;2023-07-16T10:44:53;24.20;99.90
22908;DHT22;11620;50.050;8.690;2023-07-16T10:47:55;24.20;99.90
22908;DHT22;11620;50.050;8.690;2023-07-16T10:50:41;23.90;99.90
22908;DHT22;11620;50.050;8.690;2023-07-16T10:53:27;23.50;99.90
22908;DHT22;11620;50.050;8.690;2023-07-16T10:56:14;23.80;99.90
22908;DHT22;11620;50.050;8.690;2023-07-16T10:59:01;24.00;99.90
22908;DHT22;11620;50.050;8.690;2023-07-16T11:01:48;24.40;99.90
22908;DHT22;11620;50.050;8.690;2023-07-16T11:04:35;24.20;99.90
22908;DHT22;11620;50.050;8.690;2023-07-16T11:07:21;24.10;99.90
22908;DHT22;11620;50.050;8.690;2023-07-16T11:10:08;24.10;99.90
22908;DHT22;11620;50.050;8.690;2023-07-16T11:12:55;24.40;99.90
22908;DHT22;11620;50.050;8.690;2023-07-16T11:15:41;24.30;99.90
22908;DHT22;11620;50.050;8.690;2023-07-16T11:18:28;24.50;99.90
22908;DHT22;11620;50.050;8.690;2023-07-16T11:21:14;24.50;99.90
22908;DHT22;11620;50.050;8.690;2023-07-16T11:24:12;24.80;99.90
22908;DHT22;11620;50.050;8.690;2023-07-16T11:27:00;24.40;99.90
22908;DHT22;11620;50.050;8.690;2023-07-16T11:29:52;24.30;99.90
22908;DHT22;11620;50.050;8.690;2023-07-16T11:32:43;23.90;99.90
22908;DHT22;11620;50.050;8.690;2023-07-16T11:35:31;24.20;99.90
22908;DHT22;11620;50.050;8.690;2023-07-16T11:38:18;25.00;99.90
22908;DHT22;11620;50.050;8.690;2023-07-16T11:41:04;24.80;99.90
22908;DHT22;11620;50.050;8.690;2023-07-16T11:43:51;25.20;99.90
22908;DHT22;11620;50.050;8.690;2023-07-16T11:46:37;25.40;99.90
22908;DHT22;11620;50.050;8.690;2023-07-16T11:49:23;25.50;99.90
22908;DHT22;11620;50.050;8.690;2023-07-16T11:52:10;25.30;99.90
22908;DHT22;11620;50.050;8.690;2023-07-16T11:54:58;25.20;99.90
22908;DHT22;11620;50.050;8.690;2023-07-16T11:57:45;25.40;99.90
22908;DHT22;11620;50.050;8.690;2023-07-16T12:00:32;25.80;99.90
22908;DHT22;11620;50.050;8.690;2023-07-16T12:03:18;25.90;99.90
22908;DHT22;11620;50.050;8.690;2023-07-16T12:06:04;25.70;99.90
22908;DHT22;11620;50.050;8.690;2023-07-16T12:08:51;25.90;99.90
22908;DHT22;11620;50.050;8.690;2023-07-16T12:11:37;25.60;99.90
22908;DHT22;11620;50.050;8.690;2023-07-16T12:14:24;25.80;99.90
22908;DHT22;11620;50.050;8.690;2023-07-16T12:17:10;25.80;99.90
22908;DHT22;11620;50.050;8.690;2023-07-16T12:19:57;25.80;99.90
22908;DHT22;11620;50.050;8.690;2023-07-16T12:22:43;26.00;99.90
22908;DHT22;11620;50.050;8.690;2023-07-16T12:25:29;26.10;99.90
22908;DHT22;11620;50.050;8.690;2023-07-16T12:28:18;25.90;99.90
22908;DHT22;11620;50.050;8.690;2023-07-16T12:31:04;25.10;99.90
22908;DHT22;11620;50.050;8.690;2023-07-16T12:33:50;24.30;99.90
22908;DHT22;11620;50.050;8.690;2023-07-16T12:36:37;24.30;99.90
22908;DHT22;11620;50.050;8.690;2023-07-16T12:39:23;24.40;99.90
22908;DHT22;11620;50.050;8.690;2023-07-16T12:42:09;24.40;99.90
22908;DHT22;11620;50.050;8.690;2023-07-16T12:44:55;24.60;99.90
22908;DHT22;11620;50.050;8.690;2023-07-16T12:47:42;25.40;99.90
22908;DHT22;11620;50.050;8.690;2023-07-16T12:50:28;25.10;99.90
22908;DHT22;11620;50.050;8.690;2023-07-16T12:53:15;24.30;99.90
22908;DHT22;11620;50.050;8.690;2023-07-16T12:56:01;24.70;99.90
22908;DHT22;11620;50.050;8.690;2023-07-16T12:58:49;25.40;99.90
22908;DHT22;11620;50.050;8.690;2023-07-16T13:01:35;25.60;99.90
22908;DHT22;11620;50.050;8.690;2023-07-16T13:04:21;26.00;99.90
22908;DHT22;11620;50.050;8.690;2023-07-16T13:07:08;25.70;99.90
22908;DHT22;11620;50.050;8.690;2023-07-16T13:09:54;25.40;99.90
22908;DHT22;11620;50.050;8.690;2023-07-16T13:12:41;25.30;99.90
22908;DHT22;11620;50.050;8.690;2023-07-16T13:15:27;24.80;99.90
22908;DHT22;11620;50.050;8.690;2023-07-16T13:18:13;24.40;99.90
22908;DHT22;11620;50.050;8.690;2023-07-16T13:20:59;24.50;99.90
22908;DHT22;11620;50.050;8.690;2023-07-16T13:23:46;24.40;99.90
22908;DHT22;11620;50.050;8.690;2023-07-16T13:26:32;24.80;99.90
22908;DHT22;11620;50.050;8.690;2023-07-16T13:29:19;25.40;99.90
22908;DHT22;11620;50.050;8.690;2023-07-16T13:32:05;25.80;99.90
22908;DHT22;11620;50.050;8.690;2023-07-16T13:34:51;25.70;99.90
22908;DHT22;11620;50.050;8.690;2023-07-16T13:37:38;25.50;99.90
22908;DHT22;11620;50.050;8.690;2023-07-16T13:40:24;25.70;99.90
22908;DHT22;11620;50.050;8.690;2023-07-16T13:43:10;25.50;99.90
22908;DHT22;11620;50.050;8.690;2023-07-16T13:45:57;25.80;99.90
22908;DHT22;11620;50.050;8.690;2023-07-16T13:48:43;25.70;99.90
22908;DHT22;11620;50.050;8.690;2023-07-16T13:51:29;25.90;99.90
22908;DHT22;11620;50.050;8.690;2023-07-16T13:54:16;26.10;99.90
22908;DHT22;11620;50.050;8.690;2023-07-16T13:57:02;25.90;99.90
22908;DHT22;11620;50.050;8.690;2023-07-16T13:59:48;26.60;99.90
22908;DHT22;11620;50.050;8.690;2023-07-16T14:02:36;26.70;99.50
22908;DHT22;11620;50.050;8.690;2023-07-16T14:05:22;26.30;99.40
22908;DHT22;11620;50.050;8.690;2023-07-16T14:08:08;26.30;99.90
22908;DHT22;11620;50.050;8.690;2023-07-16T14:10:55;26.30;99.70
22908;DHT22;11620;50.050;8.690;2023-07-16T14:13:41;26.50;99.40
22908;DHT22;11620;50.050;8.690;2023-07-16T14:16:27;26.00;98.70
22908;DHT22;11620;50.050;8.690;2023-07-16T14:19:14;26.10;99.60
22908;DHT22;11620;50.050;8.690;2023-07-16T14:22:00;25.90;98.80
22908;DHT22;11620;50.050;8.690;2023-07-16T14:24:46;26.00;98.90
22908;DHT22;11620;50.050;8.690;2023-07-16T14:27:37;25.90;99.60
22908;DHT22;11620;50.050;8.690;2023-07-16T14:30:23;26.30;98.30
22908;DHT22;11620;50.050;8.690;2023-07-16T14:33:09;26.50;98.30
22908;DHT22;11620;50.050;8.690;2023-07-16T14:35:55;26.40;98.70
22908;DHT22;11620;50.050;8.690;2023-07-16T14:38:42;26.30;98.90
22908;DHT22;11620;50.050;8.690;2023-07-16T14:41:28;25.50;97.60
22908;DHT22;11620;50.050;8.690;2023-07-16T14:44:14;25.60;98.80
22908;DHT22;11620;50.050;8.690;2023-07-16T14:47:01;25.30;98.70
22908;DHT22;11620;50.050;8.690;2023-07-16T14:49:47;25.80;99.20
22908;DHT22;11620;50.050;8.690;2023-07-16T14:52:33;26.00;99.20
22908;DHT22;11620;50.050;8.690;2023-07-16T14:55:21;25.90;99.60
22908;DHT22;11620;50.050;8.690;2023-07-16T14:58:08;25.90;98.00
22908;DHT22;11620;50.050;8.690;2023-07-16T15:00:55;25.40;98.00
22908;DHT22;11620;50.050;8.690;2023-07-16T15:03:44;25.50;98.50
22908;DHT22;11620;50.050;8.690;2023-07-16T15:06:31;25.40;98.00
22908;DHT22;11620;50.050;8.690;2023-07-16T15:09:17;25.40;97.80
22908;DHT22;11620;50.050;8.690;2023-07-16T15:12:05;25.70;96.90
22908;DHT22;11620;50.050;8.690;2023-07-16T15:14:52;25.80;97.30
22908;DHT22;11620;50.050;8.690;2023-07-16T15:17:38;25.90;96.50
22908;DHT22;11620;50.050;8.690;2023-07-16T15:20:25;25.50;96.20
22908;DHT22;11620;50.050;8.690;2023-07-16T15:23:12;25.40;97.20
22908;DHT22;11620;50.050;8.690;2023-07-16T15:26:03;25.20;96.80
22908;DHT22;11620;50.050;8.690;2023-07-16T15:28:49;25.50;97.30
22908;DHT22;11620;50.050;8.690;2023-07-16T15:31:35;25.70;97.40
22908;DHT22;11620;50.050;8.690;2023-07-16T15:34:22;25.50;98.30
22908;DHT22;11620;50.050;8.690;2023-07-16T15:37:08;25.60;97.40
22908;DHT22;11620;50.050;8.690;2023-07-16T15:39:57;25.80;97.20
22908;DHT22;11620;50.050;8.690;2023-07-16T15:42:45;25.40;96.00
22908;DHT22;11620;50.050;8.690;2023-07-16T15:45:31;25.10;96.30
22908;DHT22;11620;50.050;8.690;2023-07-16T15:48:18;24.90;96.00
22908;DHT22;11620;50.050;8.690;2023-07-16T15:51:04;24.90;96.30
22908;DHT22;11620;50.050;8.690;2023-07-16T15:53:54;25.00;96.10
22908;DHT22;11620;50.050;8.690;2023-07-16T15:56:40;25.00;96.60
22908;DHT22;11620;50.050;8.690;2023-07-16T15:59:27;25.10;97.00
22908;DHT22;11620;50.050;8.690;2023-07-16T16:02:13;25.20;97.90
22908;DHT22;11620;50.050;8.690;2023-07-16T16:05:00;25.00;96.80
22908;DHT22;11620;50.050;8.690;2023-07-16T16:08:10;24.90;97.00
22908;DHT22;11620;50.050;8.690;2023-07-16T16:10:56;25.00;96.90
22908;DHT22;11620;50.050;8.690;2023-07-16T16:13:43;25.10;97.20
22908;DHT22;11620;50.050;8.690;2023-07-16T16:16:29;25.10;96.90
22908;DHT22;11620;50.050;8.690;2023-07-16T16:19:19;24.80;96.30
22908;DHT22;11620;50.050;8.690;2023-07-16T16:22:05;25.10;97.00
22908;DHT22;11620;50.050;8.690;2023-07-16T16:24:52;24.80;96.60
22908;DHT22;11620;50.050;8.690;2023-07-16T16:27:38;24.70;96.80
22908;DHT22;11620;50.050;8.690;2023-07-16T16:30:24;24.30;97.00
22908;DHT22;11620;50.050;8.690;2023-07-16T16:33:11;24.30;97.20
22908;DHT22;11620;50.050;8.690;2023-07-16T16:35:57;24.30;97.40
22908;DHT22;11620;50.050;8.690;2023-07-16T16:38:43;24.10;97.30
22908;DHT22;11620;50.050;8.690;2023-07-16T16:41:30;24.30;97.60
22908;DHT22;11620;50.050;8.690;2023-07-16T16:44:16;24.20;97.00
22908;DHT22;11620;50.050;8.690;2023-07-16T16:47:02;24.10;97.60
22908;DHT22;11620;50.050;8.690;2023-07-16T16:49:49;24.30;97.30
22908;DHT22;11620;50.050;8.690;2023-07-16T16:52:36;24.50;98.50
22908;DHT22;11620;50.050;8.690;2023-07-16T16:55:23;24.60;97.50
22908;DHT22;11620;50.050;8.690;2023-07-16T16:58:09;24.50;97.40
22908;DHT22;11620;50.050;8.690;2023-07-16T17:00:55;24.60;97.50
22908;DHT22;11620;50.050;8.690;2023-07-16T17:03:42;24.50;97.30
22908;DHT22;11620;50.050;8.690;2023-07-16T17:06:28;24.30;97.70
22908;DHT22;11620;50.050;8.690;2023-07-16T17:09:14;24.10;97.60
22908;DHT22;11620;50.050;8.690;2023-07-16T17:12:01;24.20;97.60
22908;DHT22;11620;50.050;8.690;2023-07-16T17:14:48;24.10;97.50
22908;DHT22;11620;50.050;8.690;2023-07-16T17:17:35;24.20;98.30
22908;DHT22;11620;50.050;8.690;2023-07-16T17:20:21;24.30;98.20
22908;DHT22;11620;50.050;8.690;2023-07-16T17:23:10;24.10;98.10
22908;DHT22;11620;50.050;8.690;2023-07-16T17:25:56;23.90;98.30
22908;DHT22;11620;50.050;8.690;2023-07-16T17:28:43;23.70;98.00
22908;DHT22;11620;50.050;8.690;2023-07-16T17:31:31;23.80;99.10
22908;DHT22;11620;50.050;8.690;2023-07-16T17:34:19;23.80;98.50
22908;DHT22;11620;50.050;8.690;2023-07-16T17:37:06;23.90;98.80
22908;DHT22;11620;50.050;8.690;2023-07-16T17:39:53;23.80;99.10
22908;DHT22;11620;50.050;8.690;2023-07-16T17:42:40;23.90;99.20
22908;DHT22;11620;50.050;8.690;2023-07-16T17:45:26;23.80;98.50